Time;durP1;ratioP1;P1;durP2;ratioP2;P2;SDS_P1;SDS_P2;PMS_P1;PMS_P2;Temp;Humidity;BMP_temperature;BMP_pressure;BME280_temperature;BME280_humidity;BME280_pressure;Samples;Min_cycle;Max_cycle;Signal;HPM_P1;HPM_P2
2021/01/03 00:00:52;;;;;;;5.27;4.47;;;;;;;2.93;69.36;100775.94;5021894;28;20223;-65
2021/01/03 00:03:18;;;;;;;5.80;4.57;;;;;;;2.92;69.46;100780.34;5022316;28;20220;-65
2021/01/03 00:05:44;;;;;;;5.83;4.27;;;;;;;2.91;68.61;100781.25;5019048;28;20289;-64
2021/01/03 00:08:10;;;;;;;5.83;4.37;;;;;;;2.91;68.47;100775.13;5019137;28;20276;-65
2021/01/03 00:10:36;;;;;;;5.37;4.40;;;;;;;2.91;68.80;100776.00;5018576;28;20208;-64
2021/01/03 00:13:03;;;;;;;6.77;4.97;;;;;;;2.91;68.27;100777.75;5016643;28;20230;-65
2021/01/03 00:15:29;;;;;;;6.03;4.50;;;;;;;2.89;68.99;100776.94;5019361;28;20202;-65
2021/01/03 00:17:55;;;;;;;8.23;4.50;;;;;;;2.89;68.75;100776.94;5018450;28;20298;-64
2021/01/03 00:20:24;;;;;;;7.23;4.90;;;;;;;2.89;68.47;100776.94;5018884;28;20207;-65
2021/01/03 00:22:51;;;;;;;7.20;4.97;;;;;;;2.89;69.10;100779.56;5015633;28;20593;-64
2021/01/03 00:25:19;;;;;;;7.27;4.60;;;;;;;2.87;68.77;100769.09;5021220;28;20213;-65
2021/01/03 00:27:46;;;;;;;6.33;4.27;;;;;;;2.88;68.98;100769.97;5015835;28;20691;-64
2021/01/03 00:30:14;;;;;;;7.90;5.67;;;;;;;2.87;68.28;100776.13;5014493;28;20230;-65
2021/01/03 00:32:42;;;;;;;6.07;4.70;;;;;;;2.85;68.45;100770.94;5019567;28;20198;-65
2021/01/03 00:35:11;;;;;;;7.20;5.33;;;;;;;2.85;69.02;100777.97;5018696;28;20213;-65
2021/01/03 00:37:37;;;;;;;8.73;4.73;;;;;;;2.85;69.17;100777.97;5022233;28;20229;-65
2021/01/03 00:40:05;;;;;;;7.67;5.07;;;;;;;2.85;68.63;100770.94;5021651;28;20202;-65
2021/01/03 00:42:31;;;;;;;6.73;4.00;;;;;;;2.83;69.21;100772.75;5024558;28;20219;-65
2021/01/03 00:44:57;;;;;;;6.90;4.37;;;;;;;2.81;68.83;100766.66;5020392;28;20206;-65
2021/01/03 00:47:23;;;;;;;5.60;4.30;;;;;;;2.82;68.67;100770.16;5023077;28;20226;-66
2021/01/03 00:49:50;;;;;;;6.37;4.10;;;;;;;2.81;69.05;100773.69;5020618;28;20548;-65
2021/01/03 00:52:16;;;;;;;6.87;4.67;;;;;;;2.81;69.01;100771.06;5019397;28;20267;-65
2021/01/03 00:54:42;;;;;;;6.40;4.47;;;;;;;2.81;68.44;100771.94;5023891;28;20202;-65
2021/01/03 00:57:08;;;;;;;6.40;4.20;;;;;;;2.81;68.43;100776.31;5022066;28;20244;-66
2021/01/03 00:59:34;;;;;;;5.23;4.07;;;;;;;2.81;68.59;100773.69;5023699;28;20202;-66
2021/01/03 01:02:00;;;;;;;6.03;4.23;;;;;;;2.81;69.08;100765.81;5021091;28;20222;-65
2021/01/03 01:04:26;;;;;;;6.47;4.10;;;;;;;2.78;68.86;100772.00;5025174;28;20580;-66
2021/01/03 01:06:53;;;;;;;6.67;4.23;;;;;;;2.77;68.45;100773.78;5024071;28;20208;-66
2021/01/03 01:09:19;;;;;;;5.67;3.87;;;;;;;2.77;68.67;100781.66;5025238;28;20627;-65
2021/01/03 01:11:45;;;;;;;6.20;3.87;;;;;;;2.75;69.28;100774.72;5022973;28;20203;-65
2021/01/03 01:14:12;;;;;;;5.47;4.07;;;;;;;2.75;69.02;100775.59;5022600;28;20203;-63
2021/01/03 01:16:38;;;;;;;5.60;3.70;;;;;;;2.75;68.87;100766.84;5025264;28;20214;-64
2021/01/03 01:19:05;;;;;;;6.07;4.13;;;;;;;2.75;68.37;100780.84;5027192;28;20222;-64
2021/01/03 01:21:31;;;;;;;6.00;4.37;;;;;;;2.75;68.83;100775.59;5022439;28;20582;-63
2021/01/03 01:23:58;;;;;;;7.37;5.10;;;;;;;2.77;69.46;100776.41;5026104;28;20256;-63
2021/01/03 01:26:24;;;;;;;5.77;4.47;;;;;;;2.78;69.45;100778.13;5024927;28;20256;-63
2021/01/03 01:28:50;;;;;;;6.03;4.23;;;;;;;2.79;68.57;100782.50;5028905;28;20276;-63
2021/01/03 01:31:16;;;;;;;5.80;4.33;;;;;;;2.79;68.68;100777.22;5026179;28;20203;-63
2021/01/03 01:33:42;;;;;;;5.37;4.00;;;;;;;2.79;69.20;100777.22;5020179;28;20214;-64
2021/01/03 01:36:09;;;;;;;5.73;4.03;;;;;;;2.80;68.96;100778.09;5026265;28;20221;-63
2021/01/03 01:38:36;;;;;;;4.83;3.80;;;;;;;2.82;69.67;100783.31;5022202;28;20234;-63
2021/01/03 01:41:03;;;;;;;4.83;3.70;;;;;;;2.82;69.60;100785.94;5020460;28;20313;-63
2021/01/03 01:43:29;;;;;;;5.27;4.03;;;;;;;2.82;69.77;100775.41;5028370;28;20260;-64
2021/01/03 01:45:55;;;;;;;5.73;3.83;;;;;;;2.80;69.13;100778.09;5028455;28;20205;-63
2021/01/03 01:48:25;;;;;;;5.67;3.90;;;;;;;2.79;69.66;100777.22;5027638;28;20230;-64
2021/01/03 01:51:05;;;;;;;7.00;4.10;;;;;;;2.79;69.56;100774.59;5015941;28;20202;-62
2021/01/03 01:53:34;;;;;;;7.93;4.43;;;;;;;2.78;69.31;100783.41;5030892;28;20204;-63
2021/01/03 01:56:11;;;;;;;5.17;4.17;;;;;;;2.79;69.42;100779.84;5028880;28;20202;-63
2021/01/03 01:58:46;;;;;;;7.13;4.80;;;;;;;2.79;69.64;100779.84;5025558;28;20230;-63
2021/01/03 02:01:18;;;;;;;6.57;4.17;;;;;;;2.78;69.83;100778.13;5024246;28;20222;-62
2021/01/03 02:03:51;;;;;;;6.90;4.20;;;;;;;2.79;69.60;100777.22;5023025;28;20207;-63
2021/01/03 02:06:24;;;;;;;6.20;4.60;;;;;;;2.79;69.64;100773.75;5022378;28;20209;-63
2021/01/03 02:08:57;;;;;;;6.20;4.37;;;;;;;2.81;69.40;100771.94;5025182;28;20732;-64
2021/01/03 02:11:26;;;;;;;5.53;4.23;;;;;;;2.79;69.75;100769.34;5025023;28;20202;-64
2021/01/03 02:13:55;;;;;;;7.30;4.73;;;;;;;2.78;69.72;100764.97;5027655;28;20206;-64
2021/01/03 02:16:24;;;;;;;7.50;4.60;;;;;;;2.78;69.56;100764.97;5031051;28;20214;-64
2021/01/03 02:18:52;;;;;;;5.87;4.57;;;;;;;2.79;69.72;100755.31;5019289;28;20709;-63
2021/01/03 02:21:25;;;;;;;5.53;3.93;;;;;;;2.79;69.27;100747.44;5022749;28;20228;-62
2021/01/03 02:24:02;;;;;;;6.87;4.00;;;;;;;2.79;69.36;100750.94;5020266;28;20207;-62
2021/01/03 02:26:34;;;;;;;6.27;4.13;;;;;;;2.78;69.61;100750.97;5027855;28;20263;-64
2021/01/03 02:29:00;;;;;;;5.67;4.33;;;;;;;2.76;69.92;100751.00;5025104;28;20226;-64
2021/01/03 02:31:33;;;;;;;5.73;3.90;;;;;;;2.75;70.40;100748.44;5022946;28;20210;-64
2021/01/03 02:34:01;;;;;;;5.60;3.70;;;;;;;2.74;70.36;100750.19;5018686;28;20232;-64
2021/01/03 02:36:32;;;;;;;5.70;3.40;;;;;;;2.71;69.55;100749.41;5023826;28;20279;-64
2021/01/03 02:39:06;;;;;;;6.40;4.43;;;;;;;2.70;70.40;100743.28;5021088;28;20281;-64
2021/01/03 02:41:34;;;;;;;5.30;3.67;;;;;;;2.71;70.49;100747.66;5024918;28;20230;-64
2021/01/03 02:44:00;;;;;;;6.60;4.50;;;;;;;2.69;70.05;100746.84;5026273;28;20206;-64
2021/01/03 02:46:27;;;;;;;6.23;3.57;;;;;;;2.68;69.89;100741.66;5026227;28;20218;-64
2021/01/03 02:48:53;;;;;;;7.17;4.00;;;;;;;2.67;70.33;100747.81;5023274;28;20224;-64
2021/01/03 02:51:21;;;;;;;5.53;3.47;;;;;;;2.67;70.96;100750.44;5025485;28;20198;-64
2021/01/03 02:53:47;;;;;;;5.97;3.70;;;;;;;2.67;70.67;100748.66;5024264;28;20221;-64
2021/01/03 02:56:13;;;;;;;6.03;3.87;;;;;;;2.68;70.45;100746.91;5027518;28;20202;-64
2021/01/03 02:58:40;;;;;;;7.37;4.23;;;;;;;2.66;70.58;100752.22;5032001;28;20222;-64
2021/01/03 03:01:06;;;;;;;5.40;3.70;;;;;;;2.67;70.64;100745.19;5031409;28;20756;-64
2021/01/03 03:03:32;;;;;;;5.80;3.93;;;;;;;2.67;70.25;100750.44;5039472;28;20670;-65
2021/01/03 03:05:58;;;;;;;5.50;3.70;;;;;;;2.68;70.76;100755.66;5030400;28;20205;-65
2021/01/03 03:08:24;;;;;;;4.57;3.57;;;;;;;2.67;71.22;100753.94;5029712;28;20229;-64
2021/01/03 03:10:52;;;;;;;7.10;4.00;;;;;;;2.68;70.64;100753.03;5031129;28;20252;-64
2021/01/03 03:13:18;;;;;;;5.97;3.97;;;;;;;2.69;71.32;100749.47;5031826;28;20202;-64
2021/01/03 03:15:45;;;;;;;5.30;3.70;;;;;;;2.71;70.97;100752.03;5031233;28;20675;-64
2021/01/03 03:18:11;;;;;;;5.57;3.90;;;;;;;2.69;70.77;100744.19;5031610;28;20218;-64
2021/01/03 03:20:37;;;;;;;5.67;4.10;;;;;;;2.69;71.40;100752.09;5031211;28;20263;-63
2021/01/03 03:23:03;;;;;;;6.63;4.40;;;;;;;2.69;70.94;100754.72;5030822;28;20198;-63
2021/01/03 03:25:29;;;;;;;5.73;4.40;;;;;;;2.69;70.63;100749.47;5031670;28;20232;-64
2021/01/03 03:27:55;;;;;;;6.40;3.60;;;;;;;2.69;71.13;100746.84;5029732;28;20259;-64
2021/01/03 03:30:23;;;;;;;6.50;4.60;;;;;;;2.68;71.59;100749.53;5031668;28;20209;-64
2021/01/03 03:32:52;;;;;;;6.23;3.90;;;;;;;2.68;71.45;100752.16;5030657;28;20202;-64
2021/01/03 03:35:21;;;;;;;4.83;3.83;;;;;;;2.68;71.59;100732.00;5031499;28;20213;-64
2021/01/03 03:37:47;;;;;;;5.73;4.10;;;;;;;2.67;71.49;100740.78;5029556;28;20240;-64
2021/01/03 03:40:14;;;;;;;5.80;4.20;;;;;;;2.66;71.14;100739.06;5022186;28;20264;-64
2021/01/03 03:42:40;;;;;;;5.50;4.40;;;;;;;2.66;71.84;100732.94;5026144;28;20222;-64
2021/01/03 03:45:07;;;;;;;7.43;4.83;;;;;;;2.67;71.68;100734.66;5031139;28;20202;-64
2021/01/03 03:47:33;;;;;;;9.17;5.13;;;;;;;2.66;71.14;100739.06;5035633;28;20237;-64
2021/01/03 03:50:00;;;;;;;6.10;4.67;;;;;;;2.65;71.33;100737.34;5030104;28;20685;-64
2021/01/03 03:52:26;;;;;;;7.07;4.70;;;;;;;2.67;71.33;100735.53;5030404;28;20217;-64
2021/01/03 03:54:52;;;;;;;6.60;4.47;;;;;;;2.67;72.18;100737.28;5017607;28;20306;-64
2021/01/03 03:57:18;;;;;;;8.53;4.87;;;;;;;2.66;72.28;100739.06;5025070;28;20590;-64
2021/01/03 03:59:44;;;;;;;7.33;4.47;;;;;;;2.67;71.95;100740.78;5031322;28;20218;-64
2021/01/03 04:02:10;;;;;;;10.13;5.07;;;;;;;2.66;72.02;100743.47;5028607;28;20312;-64
2021/01/03 04:04:37;;;;;;;7.93;5.20;;;;;;;2.66;71.61;100738.19;5032363;28;20217;-64
2021/01/03 04:07:04;;;;;;;7.20;4.43;;;;;;;2.65;71.71;100741.72;5028831;28;20237;-64
2021/01/03 04:09:30;;;;;;;6.80;4.43;;;;;;;2.63;72.59;100730.41;5022986;28;20705;-64
2021/01/03 04:11:56;;;;;;;7.70;5.17;;;;;;;2.62;71.83;100732.16;5023009;28;20221;-64
2021/01/03 04:14:24;;;;;;;6.60;4.90;;;;;;;2.60;72.54;100739.22;5031455;28;20678;-64
2021/01/03 04:16:52;;;;;;;6.97;5.37;;;;;;;2.59;72.24;100741.91;5030645;28;20217;-64
2021/01/03 04:19:19;;;;;;;8.03;5.63;;;;;;;2.59;72.49;100740.13;5030193;28;20210;-64
2021/01/03 04:21:51;;;;;;;7.30;4.90;;;;;;;2.58;72.59;100738.41;5030386;28;20236;-64
2021/01/03 04:24:18;;;;;;;6.53;5.23;;;;;;;2.59;72.92;100741.91;5031423;28;20210;-64
2021/01/03 04:26:49;;;;;;;8.83;5.23;;;;;;;2.59;72.70;100737.50;5025242;28;20246;-64
2021/01/03 04:29:15;;;;;;;8.30;5.80;;;;;;;2.60;73.03;100739.22;5032050;28;20558;-63
2021/01/03 04:31:41;;;;;;;7.00;4.80;;;;;;;2.60;72.48;100746.25;5020048;28;20596;-64
2021/01/03 04:34:07;;;;;;;7.07;4.93;;;;;;;2.60;72.74;100741.84;5033311;28;20214;-64
2021/01/03 04:36:34;;;;;;;8.00;5.00;;;;;;;2.60;73.23;100743.63;5045712;28;20206;-64
2021/01/03 04:39:00;;;;;;;7.43;4.80;;;;;;;2.59;72.57;100739.28;5035076;28;20230;-64
2021/01/03 04:41:36;;;;;;;8.60;5.27;;;;;;;2.58;72.84;100745.44;5032904;28;20279;-64
2021/01/03 04:44:06;;;;;;;9.07;5.60;;;;;;;2.57;73.11;100746.34;5035165;28;20206;-64
2021/01/03 04:46:36;;;;;;;9.07;5.50;;;;;;;2.56;73.58;100749.88;5032094;28;20641;-64
2021/01/03 04:49:06;;;;;;;7.70;5.47;;;;;;;2.56;73.38;100748.09;5035197;28;20222;-64
2021/01/03 04:51:39;;;;;;;8.27;5.27;;;;;;;2.55;73.38;100743.75;5032065;28;20198;-64
2021/01/03 04:54:11;;;;;;;9.47;5.33;;;;;;;2.56;73.67;100747.25;5034547;28;20729;-64
2021/01/03 04:56:52;;;;;;;8.70;4.87;;;;;;;2.55;73.12;100754.25;5040764;28;20210;-64
2021/01/03 04:59:36;;;;;;;7.97;5.27;;;;;;;2.54;73.44;100749.03;5033884;28;20637;-64
2021/01/03 05:02:28;;;;;;;9.20;5.17;;;;;;;2.53;73.02;100752.59;5034005;28;20232;-64
2021/01/03 05:05:08;;;;;;;8.30;5.20;;;;;;;2.52;73.39;100743.84;5031990;28;20592;-63
2021/01/03 05:07:39;;;;;;;7.97;5.00;;;;;;;2.53;73.45;100747.31;5040836;28;20244;-64
2021/01/03 05:10:11;;;;;;;8.33;5.30;;;;;;;2.52;73.42;100746.47;5031726;28;20582;-64
2021/01/03 05:12:50;;;;;;;8.43;5.37;;;;;;;2.53;73.40;100749.94;5033524;28;20208;-64
2021/01/03 05:15:23;;;;;;;8.63;5.27;;;;;;;2.52;74.08;100750.84;5032617;28;20292;-64
2021/01/03 05:17:49;;;;;;;9.33;5.33;;;;;;;2.53;73.96;100742.94;5033138;28;20222;-63
2021/01/03 05:20:16;;;;;;;9.17;6.10;;;;;;;2.54;73.86;100746.41;5033500;28;20698;-64
2021/01/03 05:22:43;;;;;;;8.63;5.43;;;;;;;2.54;74.12;100749.03;5029213;28;20226;-63
2021/01/03 05:25:13;;;;;;;10.03;6.10;;;;;;;2.55;73.54;100746.38;5033155;28;20206;-64
2021/01/03 05:27:41;;;;;;;9.63;5.53;;;;;;;2.56;73.68;100750.72;5031267;28;20234;-63
2021/01/03 05:30:28;;;;;;;8.80;5.93;;;;;;;2.55;73.54;100754.25;5030540;28;20214;-63
2021/01/03 05:33:08;;;;;;;9.17;5.67;;;;;;;2.51;74.12;100747.38;5032378;28;20202;-64
2021/01/03 05:35:38;;;;;;;11.97;6.53;;;;;;;2.50;74.33;100745.66;5033210;28;20210;-63
2021/01/03 05:38:05;;;;;;;8.50;6.03;;;;;;;2.50;74.12;100743.03;5033396;28;20741;-63
2021/01/03 05:40:34;;;;;;;8.80;6.20;;;;;;;2.50;73.82;100748.31;5031897;28;20207;-64
2021/01/03 05:43:17;;;;;;;7.60;5.40;;;;;;;2.48;74.11;100744.84;5030788;28;20641;-63
2021/01/03 05:45:57;;;;;;;8.77;5.93;;;;;;;2.47;75.02;100748.38;5032878;28;20210;-64
2021/01/03 05:48:26;;;;;;;7.83;5.77;;;;;;;2.47;74.19;100747.53;5031140;28;20233;-63
2021/01/03 05:50:52;;;;;;;10.47;6.33;;;;;;;2.45;74.42;100747.56;5029221;28;20210;-64
2021/01/03 05:53:21;;;;;;;8.03;5.77;;;;;;;2.43;75.03;100741.47;5027835;28;20206;-64
2021/01/03 05:55:54;;;;;;;9.97;6.63;;;;;;;2.42;74.74;100745.00;5031753;28;20214;-64
2021/01/03 05:58:26;;;;;;;10.00;6.30;;;;;;;2.42;74.95;100747.66;5031879;28;20222;-64
2021/01/03 06:00:54;;;;;;;8.73;6.10;;;;;;;2.41;74.87;100761.69;5031606;28;20210;-64
2021/01/03 06:03:28;;;;;;;11.33;6.63;;;;;;;2.42;74.67;100760.78;5032420;28;20212;-64
2021/01/03 06:06:00;;;;;;;9.87;6.13;;;;;;;2.41;75.41;100753.81;5027319;28;20213;-64
2021/01/03 06:08:28;;;;;;;10.27;6.63;;;;;;;2.39;75.10;100760.88;5032504;28;20240;-64
2021/01/03 06:10:55;;;;;;;9.83;6.90;;;;;;;2.40;75.20;100763.44;5022985;28;20670;-64
2021/01/03 06:13:25;;;;;;;9.60;6.93;;;;;;;2.38;74.80;100759.13;5027707;28;20206;-64
2021/01/03 06:15:56;;;;;;;9.70;6.00;;;;;;;2.39;75.25;100766.13;5031928;28;20222;-64
2021/01/03 06:18:31;;;;;;;11.30;7.17;;;;;;;2.41;75.15;100761.69;5032110;28;20325;-64
2021/01/03 06:20:58;;;;;;;11.13;6.90;;;;;;;2.39;74.92;100766.13;5030738;28;20197;-64
2021/01/03 06:23:31;;;;;;;13.43;7.30;;;;;;;2.39;75.42;100753.84;5032508;28;20678;-64
2021/01/03 06:26:01;;;;;;;9.73;6.13;;;;;;;2.36;75.80;100756.56;5031221;28;20206;-64
2021/01/03 06:28:39;;;;;;;10.83;6.53;;;;;;;2.34;75.53;100768.88;5019313;28;20237;-64
2021/01/03 06:31:50;;;;;;;11.97;6.50;;;;;;;2.33;75.76;100763.69;5030288;28;20259;-63
2021/01/03 06:34:27;;;;;;;11.40;6.90;;;;;;;2.34;75.18;100768.00;4954911;28;20236;-64
2021/01/03 06:36:57;;;;;;;11.93;6.63;;;;;;;2.31;75.75;100762.88;4952559;28;20654;-64
2021/01/03 06:39:33;;;;;;;11.77;7.83;;;;;;;2.29;76.20;100765.53;4992148;28;20211;-64
2021/01/03 06:42:01;;;;;;;11.93;7.23;;;;;;;2.29;75.96;100757.66;5022387;28;20608;-64
2021/01/03 06:44:46;;;;;;;10.07;7.20;;;;;;;2.29;75.65;100760.28;5029156;28;20210;-64
2021/01/03 06:47:52;;;;;;;11.87;6.90;;;;;;;2.32;75.48;100756.72;5012614;28;20236;-64
2021/01/03 06:50:49;;;;;;;9.97;6.47;;;;;;;2.31;76.06;100762.88;5023363;28;20206;-64
2021/01/03 06:53:44;;;;;;;11.30;6.53;;;;;;;2.31;75.55;100755.84;5023020;28;20195;-64
2021/01/03 06:56:47;;;;;;;11.73;6.50;;;;;;;2.31;75.55;100762.88;5022007;28;20206;-63
2021/01/03 06:59:51;;;;;;;8.20;5.67;;;;;;;2.34;76.16;100768.88;5012254;28;20260;-64
2021/01/03 07:02:21;;;;;;;10.70;6.00;;;;;;;2.35;75.67;100772.38;5025360;28;20225;-63
2021/01/03 07:04:47;;;;;;;12.13;6.40;;;;;;;2.35;76.03;100769.72;5029175;28;20206;-64
2021/01/03 07:07:18;;;;;;;10.27;5.90;;;;;;;2.36;75.41;100766.19;5031366;28;20225;-64
2021/01/03 07:09:55;;;;;;;10.47;6.97;;;;;;;2.35;75.97;100759.22;5029959;28;20285;-63
2021/01/03 07:12:35;;;;;;;9.83;6.20;;;;;;;2.36;75.52;100767.06;5028397;28;20213;-64
2021/01/03 07:15:15;;;;;;;8.87;5.47;;;;;;;2.36;76.15;100767.06;5024595;28;20198;-62
2021/01/03 07:17:59;;;;;;;11.23;7.20;;;;;;;2.34;75.79;100760.13;5030208;28;20230;-64
2021/01/03 07:20:34;;;;;;;10.00;6.53;;;;;;;2.28;75.66;100753.28;5033373;28;20624;-64
2021/01/03 07:23:11;;;;;;;12.50;7.07;;;;;;;2.28;76.32;100753.28;5028029;28;20221;-64
2021/01/03 07:25:45;;;;;;;9.93;6.17;;;;;;;2.26;75.97;100760.34;5037925;28;20228;-64
2021/01/03 07:28:27;;;;;;;11.93;7.00;;;;;;;2.27;75.70;100756.81;5028523;28;20218;-64
2021/01/03 07:31:11;;;;;;;10.67;6.57;;;;;;;2.26;76.16;100760.34;5030803;28;20667;-65
2021/01/03 07:33:46;;;;;;;13.43;7.20;;;;;;;2.27;76.18;100764.72;5017502;28;20202;-64
2021/01/03 07:36:37;;;;;;;9.70;6.77;;;;;;;2.28;75.88;100762.94;5022921;28;20202;-64
2021/01/03 07:39:09;;;;;;;12.00;8.00;;;;;;;2.30;76.10;100761.13;5011039;28;20234;-64
2021/01/03 07:41:35;;;;;;;10.83;7.00;;;;;;;2.29;75.77;100759.41;5024154;28;20594;-63
2021/01/03 07:44:04;;;;;;;11.43;7.53;;;;;;;2.29;75.96;100760.28;5020548;28;20199;-64
2021/01/03 07:46:55;;;;;;;12.43;7.50;;;;;;;2.32;76.30;100765.44;5021756;28;20206;-64
2021/01/03 07:49:47;;;;;;;10.73;7.37;;;;;;;2.32;75.58;100767.22;5020624;28;20589;-64
2021/01/03 07:52:40;;;;;;;10.70;7.63;;;;;;;2.34;76.02;100774.13;5009552;28;20261;-64
2021/01/03 07:55:22;;;;;;;11.20;7.87;;;;;;;2.32;75.92;100768.09;5029291;28;20202;-64
2021/01/03 07:57:52;;;;;;;13.47;8.20;;;;;;;2.34;75.84;100768.00;5028138;28;20237;-64
2021/01/03 08:00:21;;;;;;;11.40;7.53;;;;;;;2.33;75.74;100766.31;5027717;28;20295;-64
2021/01/03 08:02:47;;;;;;;13.17;8.20;;;;;;;2.34;75.52;100778.53;5023531;28;20288;-64
2021/01/03 08:05:14;;;;;;;10.77;7.20;;;;;;;2.34;76.09;100778.53;5029025;28;20243;-64
2021/01/03 08:07:41;;;;;;;14.23;8.03;;;;;;;2.33;75.53;100776.81;5019834;28;20218;-64
2021/01/03 08:10:11;;;;;;;14.47;8.47;;;;;;;2.34;76.53;100776.75;5021077;28;20207;-64
2021/01/03 08:12:41;;;;;;;14.13;8.43;;;;;;;2.34;76.17;100774.13;5024445;28;20286;-64
2021/01/03 08:15:10;;;;;;;12.97;7.33;;;;;;;2.31;76.80;100768.97;5026595;28;20194;-64
2021/01/03 08:17:42;;;;;;;15.07;9.10;;;;;;;2.32;76.47;100777.72;5026032;28;20264;-64
2021/01/03 08:20:11;;;;;;;13.60;8.10;;;;;;;2.35;76.18;100773.22;5023950;28;20206;-64
2021/01/03 08:22:37;;;;;;;14.40;8.60;;;;;;;2.36;76.56;100769.69;5031787;28;20273;-64
2021/01/03 08:25:05;;;;;;;13.07;7.87;;;;;;;2.38;76.67;100786.28;5031205;28;20615;-64
2021/01/03 08:27:40;;;;;;;13.47;8.43;;;;;;;2.38;76.33;100773.16;5027576;28;20237;-64
2021/01/03 08:30:10;;;;;;;16.07;9.30;;;;;;;2.38;76.70;100780.16;5030382;28;20201;-64
2021/01/03 08:32:39;;;;;;;15.50;8.90;;;;;;;2.36;76.21;100774.09;5042440;28;20198;-64
2021/01/03 08:35:08;;;;;;;18.13;10.03;;;;;;;2.39;76.64;100779.25;5029669;28;20214;-64
2021/01/03 08:37:39;;;;;;;19.10;9.10;;;;;;;2.39;76.89;100780.13;5026506;28;20237;-64
2021/01/03 08:40:24;;;;;;;16.23;9.00;;;;;;;2.38;76.90;100780.16;5030439;28;20210;-64
2021/01/03 08:42:56;;;;;;;15.60;9.20;;;;;;;2.38;76.71;100774.91;5029835;28;20218;-64
2021/01/03 08:45:28;;;;;;;16.33;8.93;;;;;;;2.36;77.34;100777.56;5030539;28;20233;-64
2021/01/03 08:47:59;;;;;;;20.53;9.37;;;;;;;2.37;77.39;100781.06;5029657;28;20230;-64
2021/01/03 08:50:28;;;;;;;20.13;10.40;;;;;;;2.37;77.61;100781.94;5026802;28;20737;-64
2021/01/03 08:52:58;;;;;;;19.60;10.30;;;;;;;2.37;77.30;100778.44;5023348;28;20206;-64
2021/01/03 08:55:26;;;;;;;19.77;10.40;;;;;;;2.36;77.51;100781.97;5030022;28;20207;-64
2021/01/03 08:58:01;;;;;;;15.63;9.00;;;;;;;2.32;78.21;100775.97;5030691;28;20233;-63
2021/01/03 09:00:32;;;;;;;19.67;10.77;;;;;;;2.33;78.23;100782.91;5029325;28;20206;-64
2021/01/03 09:03:00;;;;;;;21.13;11.63;;;;;;;2.32;78.47;100782.97;5032265;28;20222;-62
2021/01/03 09:05:33;;;;;;;22.50;11.40;;;;;;;2.34;78.15;100776.75;5025718;28;20216;-64
2021/01/03 09:08:01;;;;;;;25.53;11.93;;;;;;;2.36;79.01;100784.59;5029868;28;20226;-63
2021/01/03 09:10:31;;;;;;;22.90;11.10;;;;;;;2.36;78.22;100779.34;5025325;28;20210;-64
2021/01/03 09:13:14;;;;;;;25.03;12.03;;;;;;;2.32;79.09;100789.09;5030164;28;20210;-64
2021/01/03 09:15:44;;;;;;;26.73;11.13;;;;;;;2.31;79.66;100789.16;5027729;28;20206;-64
2021/01/03 09:18:25;;;;;;;26.47;12.27;;;;;;;2.30;78.99;100790.91;5020873;28;20248;-64
2021/01/03 09:20:56;;;;;;;23.13;12.73;;;;;;;2.31;79.14;100786.50;5021520;28;20252;-64
2021/01/03 09:23:25;;;;;;;27.33;13.03;;;;;;;2.30;79.56;100793.53;5022598;28;20234;-64
2021/01/03 09:25:54;;;;;;;26.10;13.33;;;;;;;2.30;79.06;100795.31;5018223;28;20234;-64
2021/01/03 09:28:24;;;;;;;29.67;12.93;;;;;;;2.30;79.51;100795.31;5018270;28;20230;-64
2021/01/03 09:30:50;;;;;;;28.43;13.33;;;;;;;2.31;79.97;100800.53;5025742;28;20209;-65
2021/01/03 09:33:24;;;;;;;25.27;11.87;;;;;;;2.30;79.56;100796.16;5021347;28;20199;-65
2021/01/03 09:36:15;;;;;;;23.03;11.20;;;;;;;2.29;80.40;100797.06;5019453;28;20207;-65
2021/01/03 09:39:31;;;;;;;27.60;12.43;;;;;;;2.27;80.15;100790.13;5018442;28;20234;-65
2021/01/03 09:42:31;;;;;;;24.67;12.33;;;;;;;2.25;79.86;100794.56;5022588;28;20235;-64
2021/01/03 09:45:06;;;;;;;26.30;12.17;;;;;;;2.24;80.92;100792.84;5002999;28;20221;-65
2021/01/03 09:47:37;;;;;;;25.90;12.70;;;;;;;2.22;80.83;100792.88;5020642;28;20317;-65
2021/01/03 09:50:14;;;;;;;26.53;11.90;;;;;;;2.24;81.43;100790.19;5018341;28;20206;-65
2021/01/03 09:52:46;;;;;;;30.13;13.37;;;;;;;2.24;80.67;100793.69;5024736;28;20240;-65
2021/01/03 09:55:19;;;;;;;26.23;11.40;;;;;;;2.25;80.83;100792.78;5017533;28;21707;-65
2021/01/03 09:57:55;;;;;;;30.27;11.40;;;;;;;2.26;81.53;100791.03;5025451;28;20320;-66
2021/01/03 10:00:24;;;;;;;23.80;11.07;;;;;;;2.23;80.90;100778.81;5019666;28;20202;-66
2021/01/03 10:02:51;;;;;;;26.83;11.47;;;;;;;2.22;81.33;100784.13;5021857;28;20225;-66
2021/01/03 10:05:24;;;;;;;25.10;11.20;;;;;;;2.21;81.57;100783.25;5026275;28;20199;-65
2021/01/03 10:07:58;;;;;;;27.97;12.63;;;;;;;2.20;81.74;100783.28;5022162;28;20234;-65
2021/01/03 10:10:40;;;;;;;26.13;11.30;;;;;;;2.17;81.31;100783.38;5019869;28;20210;-65
2021/01/03 10:13:09;;;;;;;23.23;10.53;;;;;;;2.17;81.27;100775.50;5015595;28;20202;-65
2021/01/03 10:15:35;;;;;;;25.03;10.53;;;;;;;2.15;81.48;100780.78;5023616;28;20211;-65
2021/01/03 10:18:06;;;;;;;24.93;11.70;;;;;;;2.14;81.71;100772.97;5025882;28;20226;-65
2021/01/03 10:20:43;;;;;;;21.43;10.73;;;;;;;2.14;81.85;100770.34;5025429;28;20211;-65
2021/01/03 10:23:13;;;;;;;21.50;9.90;;;;;;;2.12;81.79;100767.75;5022387;28;20245;-65
2021/01/03 10:25:39;;;;;;;20.60;10.43;;;;;;;2.12;82.49;100761.63;5022500;28;20687;-65
2021/01/03 10:28:13;;;;;;;19.00;9.67;;;;;;;2.12;82.20;100766.91;5027575;28;20226;-65
2021/01/03 10:30:40;;;;;;;18.67;9.23;;;;;;;2.11;82.80;100758.16;5025105;28;20234;-65
2021/01/03 10:33:06;;;;;;;16.60;8.60;;;;;;;2.11;82.82;100762.53;5025762;28;20198;-65
2021/01/03 10:35:32;;;;;;;20.57;10.10;;;;;;;2.10;82.77;100753.78;5020591;28;20253;-65
2021/01/03 10:37:59;;;;;;;18.90;9.40;;;;;;;2.07;83.13;100754.72;5023289;28;20795;-65
2021/01/03 10:40:25;;;;;;;18.23;10.43;;;;;;;2.06;82.63;100754.78;5022589;28;20203;-65
2021/01/03 10:42:51;;;;;;;15.97;9.47;;;;;;;2.05;82.49;100753.03;5020326;28;20234;-65
2021/01/03 10:45:20;;;;;;;16.80;9.20;;;;;;;2.05;83.28;100751.28;5014746;28;20562;-65
2021/01/03 10:47:46;;;;;;;18.10;8.93;;;;;;;2.05;82.83;100745.16;5021918;28;20720;-65
2021/01/03 10:50:14;;;;;;;18.73;9.00;;;;;;;2.05;82.83;100746.03;5017031;28;21402;-65
2021/01/03 10:52:40;;;;;;;17.60;9.60;;;;;;;2.06;83.37;100742.50;5016360;28;20577;-65
2021/01/03 10:55:07;;;;;;;15.10;8.63;;;;;;;2.06;83.26;100732.00;5019401;28;20207;-60
2021/01/03 10:57:34;;;;;;;15.33;8.77;;;;;;;2.09;82.67;100737.16;5019764;28;20231;-64
2021/01/03 11:00:00;;;;;;;14.03;7.87;;;;;;;2.08;82.98;100732.81;5022611;28;20202;-65
2021/01/03 11:02:27;;;;;;;19.03;8.93;;;;;;;2.09;82.88;100739.81;5026355;28;20230;-64
2021/01/03 11:04:53;;;;;;;12.87;7.10;;;;;;;2.07;82.73;100733.72;5030360;28;20212;-65
2021/01/03 11:07:19;;;;;;;14.30;8.30;;;;;;;2.06;83.20;100732.00;5029977;28;20230;-65
2021/01/03 11:09:47;;;;;;;20.57;9.23;;;;;;;2.09;83.07;100724.03;5030830;28;20210;-65
2021/01/03 11:12:16;;;;;;;18.93;8.90;;;;;;;2.09;83.66;100721.41;5021562;28;20671;-64
2021/01/03 11:14:42;;;;;;;15.10;8.17;;;;;;;2.11;83.40;100712.63;5028485;28;20206;-65
2021/01/03 11:17:10;;;;;;;17.33;9.67;;;;;;;2.11;83.07;100708.22;5034212;28;20222;-63
2021/01/03 11:19:37;;;;;;;17.47;9.43;;;;;;;2.11;83.62;100710.84;5034087;28;20217;-65
2021/01/03 11:22:08;;;;;;;15.87;8.00;;;;;;;2.11;83.49;100707.38;5027460;28;20222;-64
2021/01/03 11:24:34;;;;;;;18.83;8.47;;;;;;;2.10;83.38;100709.13;5029594;28;20232;-66
2021/01/03 11:27:03;;;;;;;15.57;8.43;;;;;;;2.08;83.20;100701.28;5023241;28;20218;-65
2021/01/03 11:29:30;;;;;;;14.07;7.70;;;;;;;2.05;83.73;100693.50;5018527;28;20655;-65
2021/01/03 11:31:59;;;;;;;12.77;6.87;;;;;;;2.03;83.81;100703.19;5027412;28;20623;-66
2021/01/03 11:34:27;;;;;;;16.47;7.93;;;;;;;2.03;83.60;100690.03;5027592;28;20279;-65
2021/01/03 11:36:56;;;;;;;16.73;8.50;;;;;;;2.00;84.06;100690.13;5026796;28;20210;-65
2021/01/03 11:39:22;;;;;;;19.20;9.57;;;;;;;1.99;84.01;100688.41;5025241;28;20666;-64
2021/01/03 11:41:50;;;;;;;14.43;7.77;;;;;;;2.01;83.93;100685.72;5023224;28;20756;-65
2021/01/03 11:44:18;;;;;;;13.80;8.73;;;;;;;2.00;83.76;100682.25;5017850;28;20206;-65
2021/01/03 11:46:44;;;;;;;16.53;8.80;;;;;;;1.99;83.69;100692.78;5016757;28;20634;-64